Lyons, Indiana
Current Conditions -  °F | °C
As of 5:15 PM on Tuesday 25 Nov 2014 (Local Time) from KDCY Reporting Station
Overcast Overcast  
Wind Chill: 26°   Ceiling: 1800
Heat Index: 32°   Visibility: 10mi
Dew Point: 28°   Wind: 7mph
Humidity: 86%   Direction: 350°N
Pressure: 30.17"   Gusts: NA
Location:  38.99°N, 87.08°W
Report Text: KDCY 252215Z AUTO 35006KT 10SM OVC018 00/M02 A3017 RMK AO2 T00001021
Loading
Personal Weather Stations






























Interactive Weather Map New forecast layout! Learn more

10-Day Weather Forecast

Advertisements
Track Severe Weather on mobile